Time;durP1;ratioP1;P1;durP2;ratioP2;P2;SDS_P1;SDS_P2;PMS_P1;PMS_P2;Temp;Humidity;BMP_temperature;BMP_pressure;BME280_temperature;BME280_humidity;BME280_pressure;Samples;Min_cycle;Max_cycle;Signal;HPM_P1;HPM_P2
2022/01/18 00:01:53;;;;;;;4.30;3.57;;;2.40;99.90;;;;;;5049050;28;20455;-82
2022/01/18 00:04:20;;;;;;;4.40;3.70;;;2.30;99.90;;;;;;5057481;28;20481;-82
2022/01/18 00:06:50;;;;;;;4.33;3.93;;;2.40;99.90;;;;;;5055632;28;20517;-82
2022/01/18 00:09:21;;;;;;;4.27;3.87;;;2.40;99.90;;;;;;5057102;28;20508;-82
2022/01/18 00:11:55;;;;;;;3.60;3.27;;;2.40;99.90;;;;;;5049442;28;20454;-82
2022/01/18 00:14:26;;;;;;;4.07;3.40;;;2.50;99.90;;;;;;5052916;28;20572;-82
2022/01/18 00:17:16;;;;;;;3.70;3.10;;;2.50;99.90;;;;;;5050504;28;20523;-82
2022/01/18 00:19:47;;;;;;;4.90;3.63;;;2.50;99.90;;;;;;5061271;28;20533;-82
2022/01/18 00:22:15;;;;;;;4.47;2.63;;;2.60;99.90;;;;;;5050477;28;20485;-82
2022/01/18 00:24:43;;;;;;;5.67;2.83;;;2.40;99.90;;;;;;5052242;28;20523;-82
2022/01/18 00:27:18;;;;;;;4.40;4.00;;;2.50;99.90;;;;;;5051600;28;20473;-81
2022/01/18 00:29:56;;;;;;;4.00;3.57;;;2.50;99.90;;;;;;5057307;28;20456;-82
2022/01/18 00:32:33;;;;;;;4.90;4.50;;;2.50;99.90;;;;;;5057745;28;20448;-81
2022/01/18 00:35:00;;;;;;;8.50;3.60;;;2.50;99.90;;;;;;5048885;28;20578;-82
2022/01/18 00:37:34;;;;;;;3.50;3.17;;;2.50;99.90;;;;;;5062894;28;20814;-82
2022/01/18 00:40:01;;;;;;;3.30;3.00;;;2.50;99.90;;;;;;5066989;28;20467;-82
2022/01/18 00:42:28;;;;;;;3.07;2.80;;;2.60;99.90;;;;;;5046445;28;20458;-82
2022/01/18 00:44:56;;;;;;;4.63;3.07;;;2.60;99.90;;;;;;5060854;28;20465;-81
2022/01/18 00:47:23;;;;;;;3.07;2.70;;;2.50;99.90;;;;;;5065696;28;20487;-81
2022/01/18 00:49:58;;;;;;;5.80;3.20;;;2.50;99.90;;;;;;5057142;28;20964;-82
2022/01/18 00:52:27;;;;;;;7.17;4.23;;;2.50;99.90;;;;;;5055434;28;20474;-82
2022/01/18 00:54:54;;;;;;;6.50;4.40;;;2.50;99.90;;;;;;5051682;28;20513;-82
2022/01/18 00:57:22;;;;;;;4.67;3.50;;;2.50;99.90;;;;;;5062246;28;20511;-82
2022/01/18 00:59:48;;;;;;;4.70;4.10;;;2.20;99.90;;;;;;5055757;28;20464;-82
2022/01/18 01:02:18;;;;;;;4.00;3.33;;;2.20;99.90;;;;;;5062392;28;20446;-82
2022/01/18 01:04:48;;;;;;;4.17;3.10;;;2.30;99.90;;;;;;5065528;28;20513;-82
2022/01/18 01:07:16;;;;;;;3.60;3.13;;;2.30;99.90;;;;;;5060851;28;20468;-82
2022/01/18 01:09:43;;;;;;;3.30;2.87;;;2.40;99.90;;;;;;5056914;28;20449;-82
2022/01/18 01:12:12;;;;;;;2.80;2.60;;;2.40;99.90;;;;;;5063257;28;20516;-82
2022/01/18 01:14:40;;;;;;;2.80;2.60;;;2.50;99.90;;;;;;5063840;28;20501;-82
2022/01/18 01:34:06;;;;;;;2.33;2.13;;;2.40;99.90;;;;;;5062009;28;20436;-81
2022/01/18 01:37:01;;;;;;;2.57;2.37;;;2.40;99.90;;;;;;5048070;28;20469;-82
2022/01/18 01:42:53;;;;;;;4.53;1.50;;;1.90;99.90;;;;;;4997589;28;20435;-82
2022/01/18 01:45:18;;;;;;;2.13;1.57;;;1.90;99.90;;;;;;5048559;28;20454;-82
2022/01/18 01:47:50;;;;;;;1.40;1.30;;;1.90;99.90;;;;;;5062801;28;20970;-81
2022/01/18 01:50:19;;;;;;;3.20;2.90;;;2.00;99.90;;;;;;5070411;28;20441;-81
2022/01/18 01:52:48;;;;;;;3.00;2.70;;;2.10;99.90;;;;;;5057396;28;20514;-82
2022/01/18 01:55:16;;;;;;;2.53;1.77;;;2.10;99.90;;;;;;5055453;28;20481;-81
2022/01/18 01:57:43;;;;;;;2.37;1.90;;;2.00;99.90;;;;;;5064906;28;20468;-81
2022/01/18 02:00:14;;;;;;;1.50;1.40;;;2.00;99.90;;;;;;5062027;28;21014;-82
2022/01/18 02:02:41;;;;;;;1.43;1.33;;;2.10;99.90;;;;;;5053426;28;20488;-82
2022/01/18 02:05:09;;;;;;;55.47;28.47;;;2.20;99.90;;;;;;5053030;28;20469;-82
2022/01/18 02:07:36;;;;;;;29.23;17.63;;;2.30;99.90;;;;;;5066169;28;20462;-82
2022/01/18 02:10:07;;;;;;;5.03;4.63;;;2.30;99.90;;;;;;5052114;28;20445;-82
2022/01/18 02:12:34;;;;;;;4.33;4.00;;;2.40;99.90;;;;;;5054289;28;20457;-82
2022/01/18 02:15:10;;;;;;;3.60;2.83;;;2.40;99.90;;;;;;5087742;23;20451;-54
2022/01/18 02:23:16;;;;;;;5.73;2.47;;;1.80;99.90;;;;;;5041177;28;20456;-54
2022/01/18 02:25:43;;;;;;;3.20;2.07;;;1.70;99.90;;;;;;5052519;28;20946;-54
2022/01/18 02:28:10;;;;;;;2.53;2.30;;;1.70;99.90;;;;;;5045149;28;20955;-54
2022/01/18 02:30:37;;;;;;;2.70;2.10;;;1.80;99.90;;;;;;5059559;23;20516;-54
2022/01/18 02:33:04;;;;;;;4.33;2.13;;;1.90;99.90;;;;;;5059283;28;20481;-54
2022/01/18 02:35:34;;;;;;;2.37;2.20;;;1.90;99.90;;;;;;5057325;28;20509;-54
2022/01/18 02:38:02;;;;;;;3.40;3.10;;;2.10;99.90;;;;;;5052289;28;20521;-53
2022/01/18 02:40:30;;;;;;;4.70;2.27;;;2.20;99.90;;;;;;5050060;28;20516;-54
2022/01/18 02:43:00;;;;;;;3.60;3.00;;;2.20;99.90;;;;;;5050207;28;20445;-53
2022/01/18 02:45:29;;;;;;;5.00;3.67;;;2.30;99.90;;;;;;5053323;28;20461;-54
2022/01/18 02:47:56;;;;;;;5.27;4.00;;;2.30;99.90;;;;;;5048894;28;20477;-54
2022/01/18 02:50:23;;;;;;;4.00;3.60;;;2.40;99.90;;;;;;5054581;28;20923;-54
2022/01/18 02:52:51;;;;;;;4.93;4.53;;;2.40;99.90;;;;;;5055586;28;20817;-53
2022/01/18 02:55:18;;;;;;;5.87;3.30;;;2.30;99.90;;;;;;5046164;28;20509;-54
2022/01/18 02:57:55;;;;;;;3.13;2.83;;;2.30;99.90;;;;;;5053496;28;20496;-54
2022/01/18 03:00:30;;;;;;;2.30;2.10;;;2.30;99.90;;;;;;5058243;28;20493;-53
2022/01/18 03:03:14;;;;;;;1.67;1.50;;;2.30;99.90;;;;;;5050543;28;20479;-54
2022/01/18 03:05:42;;;;;;;2.07;1.87;;;2.40;99.90;;;;;;5048647;28;20456;-54
2022/01/18 03:08:11;;;;;;;2.50;1.87;;;2.40;99.90;;;;;;5056443;28;20442;-54
2022/01/18 03:10:39;;;;;;;2.53;1.90;;;2.40;99.90;;;;;;5055016;28;21035;-54
2022/01/18 03:13:07;;;;;;;2.10;1.83;;;2.40;99.90;;;;;;5047164;28;20468;-53
2022/01/18 03:15:36;;;;;;;2.90;2.00;;;2.40;99.90;;;;;;5045676;28;20517;-53
2022/01/18 03:18:06;;;;;;;2.30;2.10;;;2.50;99.90;;;;;;5042120;28;20523;-54
2022/01/18 03:20:32;;;;;;;1.97;1.30;;;2.50;99.90;;;;;;5054931;28;20471;-53
2022/01/18 03:22:59;;;;;;;2.37;1.83;;;2.50;99.90;;;;;;5049795;28;20468;-55
2022/01/18 03:25:39;;;;;;;2.27;1.90;;;2.50;99.90;;;;;;5058001;28;20493;-54
2022/01/18 03:28:07;;;;;;;1.20;1.10;;;2.50;99.90;;;;;;5060486;28;20474;-53
2022/01/18 03:30:35;;;;;;;1.40;1.30;;;2.40;99.90;;;;;;5041735;28;20532;-53
2022/01/18 03:33:03;;;;;;;1.60;1.50;;;2.40;99.90;;;;;;5050791;28;20473;-54
2022/01/18 03:35:30;;;;;;;1.30;1.20;;;2.30;99.90;;;;;;5059437;28;21220;-54
2022/01/18 03:37:58;;;;;;;4.97;1.50;;;2.20;99.90;;;;;;5051249;28;20472;-53
2022/01/18 03:40:26;;;;;;;1.77;1.67;;;2.30;99.90;;;;;;5044791;28;20508;-53
2022/01/18 03:42:55;;;;;;;1.70;1.60;;;2.30;99.90;;;;;;5056781;28;20482;-53
2022/01/18 03:45:27;;;;;;;2.47;1.73;;;2.40;99.90;;;;;;5055381;28;20467;-54
2022/01/18 03:47:56;;;;;;;1.97;1.50;;;2.40;99.90;;;;;;5044275;28;20791;-53
2022/01/18 03:50:23;;;;;;;2.23;2.03;;;2.40;99.90;;;;;;5052667;28;20484;-54
2022/01/18 03:52:50;;;;;;;1.80;1.57;;;2.40;99.90;;;;;;5061971;28;20469;-53
2022/01/18 03:55:20;;;;;;;1.00;0.90;;;2.40;99.90;;;;;;5053110;28;21083;-54
2022/01/18 03:57:49;;;;;;;1.67;1.10;;;2.20;99.90;;;;;;5052843;28;20471;-54
2022/01/18 04:00:23;;;;;;;1.20;1.10;;;2.20;99.90;;;;;;5058822;28;20500;-53
2022/01/18 04:02:50;;;;;;;1.93;1.70;;;2.20;99.90;;;;;;5062496;28;20461;-52
2022/01/18 04:05:18;;;;;;;2.57;2.37;;;2.30;99.90;;;;;;5048930;28;20487;-54
2022/01/18 04:07:45;;;;;;;3.40;3.20;;;2.30;99.90;;;;;;5057905;28;20926;-54
2022/01/18 04:10:13;;;;;;;4.00;3.70;;;2.30;99.90;;;;;;5059199;28;20892;-55
2022/01/18 04:12:41;;;;;;;3.57;3.27;;;2.00;99.90;;;;;;5048768;28;21006;-54
2022/01/18 04:15:12;;;;;;;3.87;2.43;;;1.60;99.90;;;;;;5053089;28;21040;-54
2022/01/18 04:18:02;;;;;;;4.83;2.53;;;1.40;99.90;;;;;;5059142;28;20449;-53
2022/01/18 04:26:02;;;;;;;2.90;1.97;;;1.50;99.90;;;;;;5045590;28;20474;-53
2022/01/18 04:28:35;;;;;;;3.10;1.70;;;1.40;99.90;;;;;;5057935;28;20446;-54
2022/01/18 04:31:04;;;;;;;1.63;1.53;;;1.30;99.90;;;;;;5048126;28;20472;-54
2022/01/18 04:33:32;;;;;;;1.70;1.60;;;1.40;99.90;;;;;;5045859;28;20480;-52
2022/01/18 04:36:00;;;;;;;1.70;1.60;;;1.50;99.90;;;;;;5054705;28;20582;-53
2022/01/18 04:38:27;;;;;;;1.63;1.53;;;1.50;99.90;;;;;;5064489;28;20803;-53
2022/01/18 04:40:58;;;;;;;1.57;1.43;;;1.60;99.90;;;;;;5051593;28;20488;-54
2022/01/18 04:43:39;;;;;;;2.57;2.00;;;1.70;99.90;;;;;;5051581;28;20441;-53
2022/01/18 04:48:53;;;;;;;1.60;1.10;;;1.90;99.90;;;;;;5042688;28;20456;-52
2022/01/18 04:51:20;;;;;;;1.63;1.30;;;1.90;99.90;;;;;;5047153;28;20551;-54
2022/01/18 04:53:52;;;;;;;1.77;1.17;;;1.90;99.90;;;;;;5043935;28;21193;-54
2022/01/18 04:56:28;;;;;;;1.27;1.17;;;1.90;99.90;;;;;;5049908;28;20469;-53
2022/01/18 04:58:54;;;;;;;1.30;1.20;;;1.90;99.90;;;;;;5062036;28;20439;-53
2022/01/18 05:01:23;;;;;;;1.57;1.47;;;1.90;99.90;;;;;;5047103;28;20469;-54
2022/01/18 05:03:50;;;;;;;2.37;1.70;;;1.40;99.90;;;;;;5056333;28;20488;-53
2022/01/18 05:06:18;;;;;;;2.50;1.87;;;1.20;99.90;;;;;;5060140;28;20464;-53
2022/01/18 05:08:45;;;;;;;2.40;2.30;;;1.30;99.90;;;;;;5041699;28;20458;-52
2022/01/18 05:11:16;;;;;;;2.23;2.03;;;1.30;99.90;;;;;;5039936;28;20508;-52
2022/01/18 05:14:05;;;;;;;2.50;2.30;;;1.30;99.90;;;;;;5048119;28;21009;-54
2022/01/18 05:16:51;;;;;;;2.33;2.13;;;1.50;99.90;;;;;;5063885;28;20518;-52
2022/01/18 05:19:25;;;;;;;2.67;2.47;;;1.50;99.90;;;;;;5036020;28;20456;-54
2022/01/18 05:24:36;;;;;;;3.43;2.07;;;1.60;99.90;;;;;;5048889;28;20444;-55
2022/01/18 05:27:04;;;;;;;2.43;1.80;;;1.70;99.90;;;;;;5045025;28;20882;-53
2022/01/18 05:29:31;;;;;;;3.00;1.30;;;1.70;99.90;;;;;;5044962;28;20542;-56
2022/01/18 05:32:00;;;;;;;2.73;1.70;;;1.80;99.90;;;;;;5047402;28;20504;-55
2022/01/18 05:34:27;;;;;;;1.87;1.67;;;1.70;99.90;;;;;;5056104;28;20480;-55
2022/01/18 05:36:53;;;;;;;2.93;2.53;;;1.70;99.90;;;;;;5051746;28;20514;-55
2022/01/18 05:39:21;;;;;;;2.57;2.37;;;1.70;99.90;;;;;;5048658;28;20492;-55
2022/01/18 05:41:48;;;;;;;1.90;1.80;;;1.70;99.90;;;;;;5053969;28;20562;-56
2022/01/18 05:44:15;;;;;;;1.77;1.63;;;1.70;99.90;;;;;;5050792;28;20447;-55
2022/01/18 05:46:42;;;;;;;1.77;1.40;;;1.80;99.90;;;;;;5042743;28;20474;-56
2022/01/18 05:49:11;;;;;;;1.83;1.57;;;1.80;99.90;;;;;;5047013;28;20490;-55
2022/01/18 05:51:40;;;;;;;1.40;1.23;;;1.80;99.90;;;;;;5043771;28;20573;-55
2022/01/18 05:54:07;;;;;;;1.50;1.30;;;1.80;99.90;;;;;;5045045;28;20810;-56
2022/01/18 05:56:35;;;;;;;1.83;1.20;;;1.90;99.90;;;;;;5045341;28;20534;-56
2022/01/18 05:59:03;;;;;;;1.53;1.43;;;1.80;99.90;;;;;;5058510;28;20943;-56
2022/01/18 06:01:35;;;;;;;2.07;1.90;;;1.80;99.90;;;;;;5056777;28;20478;-56
2022/01/18 06:04:13;;;;;;;1.40;1.30;;;1.80;99.90;;;;;;5047165;28;20453;-56
2022/01/18 06:06:55;;;;;;;2.43;1.90;;;1.50;99.90;;;;;;5037410;28;20460;-56
2022/01/18 06:09:24;;;;;;;1.33;1.23;;;0.90;99.90;;;;;;5043585;28;20453;-56
2022/01/18 06:11:52;;;;;;;1.30;1.20;;;0.70;99.90;;;;;;5036153;28;21020;-56
2022/01/18 06:14:19;;;;;;;2.40;2.20;;;0.80;99.90;;;;;;5040938;28;20474;-56
2022/01/18 06:16:46;;;;;;;1.80;1.70;;;1.00;99.90;;;;;;5039014;28;20515;-56
2022/01/18 06:19:14;;;;;;;1.63;1.53;;;1.10;99.90;;;;;;5042100;28;20469;-56
2022/01/18 06:21:42;;;;;;;1.20;1.10;;;1.20;99.90;;;;;;5044724;28;20565;-55
2022/01/18 06:24:11;;;;;;;1.60;1.50;;;1.30;99.90;;;;;;5045984;28;20487;-55
2022/01/18 06:26:39;;;;;;;1.77;1.43;;;1.20;99.90;;;;;;5053823;28;20433;-56
2022/01/18 06:29:06;;;;;;;2.50;1.30;;;1.20;99.90;;;;;;5050191;28;20474;-56
2022/01/18 06:31:33;;;;;;;1.30;1.20;;;1.20;99.90;;;;;;5050592;28;20930;-56
2022/01/18 06:33:59;;;;;;;1.67;1.47;;;1.00;99.90;;;;;;5063871;28;20474;-56
2022/01/18 06:36:26;;;;;;;3.70;3.10;;;1.10;99.90;;;;;;5051751;28;20507;-55
2022/01/18 06:38:55;;;;;;;3.07;2.77;;;1.20;99.90;;;;;;5049396;28;20555;-55
2022/01/18 06:41:22;;;;;;;6.53;5.33;;;1.20;99.90;;;;;;5054787;28;21071;-56
2022/01/18 06:43:49;;;;;;;3.13;2.57;;;1.20;99.90;;;;;;5059339;28;20472;-57
2022/01/18 06:46:16;;;;;;;1.83;1.43;;;1.10;99.90;;;;;;5040342;28;20523;-56
2022/01/18 06:48:44;;;;;;;1.80;1.70;;;0.60;99.90;;;;;;5051861;28;20476;-56
2022/01/18 06:51:12;;;;;;;2.00;1.90;;;0.40;99.90;;;;;;5059668;28;20465;-55
2022/01/18 06:53:45;;;;;;;6.60;5.70;;;0.30;99.90;;;;;;5039154;28;20448;-56
2022/01/18 06:56:14;;;;;;;6.80;5.30;;;0.40;99.90;;;;;;5048620;28;20514;-56
2022/01/18 06:58:41;;;;;;;7.60;6.57;;;0.20;99.90;;;;;;5054104;28;20494;-56
2022/01/18 07:01:10;;;;;;;5.17;4.07;;;0.20;99.90;;;;;;5053445;28;20490;-56
2022/01/18 07:03:37;;;;;;;4.87;4.37;;;0.00;99.90;;;;;;5045024;28;20524;-56
2022/01/18 07:06:04;;;;;;;5.07;4.67;;;0.10;99.90;;;;;;5056845;28;20526;-56
2022/01/18 07:08:31;;;;;;;5.20;4.70;;;0.30;99.90;;;;;;5050560;28;20947;-54
2022/01/18 07:10:58;;;;;;;6.40;5.60;;;0.40;99.90;;;;;;5045432;28;20500;-53
2022/01/18 07:13:27;;;;;;;6.70;6.00;;;0.40;99.90;;;;;;5050848;28;20987;-54
2022/01/18 07:15:54;;;;;;;5.80;5.30;;;0.50;99.90;;;;;;5050760;28;21016;-54
2022/01/18 07:18:21;;;;;;;8.17;5.70;;;0.50;99.90;;;;;;5052589;28;20476;-54
2022/01/18 07:20:48;;;;;;;6.27;4.90;;;0.10;99.90;;;;;;5044298;28;20503;-54
2022/01/18 07:23:15;;;;;;;5.20;4.70;;;0.00;99.90;;;;;;5052052;28;20475;-54
2022/01/18 07:25:44;;;;;;;5.83;5.20;;;0.00;99.90;;;;;;5062447;28;20448;-54
2022/01/18 07:28:11;;;;;;;5.27;4.77;;;0.00;99.90;;;;;;5045679;28;20952;-54
2022/01/18 07:30:40;;;;;;;5.73;4.30;;;-0.10;99.90;;;;;;5056368;28;21036;-54
2022/01/18 07:33:08;;;;;;;4.97;4.10;;;0.00;99.90;;;;;;5065087;28;20497;-53
2022/01/18 07:35:35;;;;;;;6.60;4.00;;;-0.10;99.90;;;;;;5050382;28;20478;-54
2022/01/18 07:38:03;;;;;;;4.67;4.00;;;-0.10;99.90;;;;;;5055699;28;20895;-54
2022/01/18 07:40:31;;;;;;;5.87;4.10;;;-0.20;99.90;;;;;;5056816;28;20496;-53
2022/01/18 07:43:00;;;;;;;3.37;3.07;;;-0.20;99.90;;;;;;5052936;28;20478;-54
2022/01/18 07:45:28;;;;;;;3.00;2.70;;;-0.30;99.90;;;;;;5053030;28;20454;-54
2022/01/18 07:47:56;;;;;;;2.67;2.47;;;-0.40;99.90;;;;;;5063389;28;20485;-55
2022/01/18 07:50:24;;;;;;;4.77;3.97;;;-0.50;99.90;;;;;;5059820;28;20995;-54
2022/01/18 07:52:51;;;;;;;4.33;4.03;;;-0.30;99.90;;;;;;5048869;28;20473;-54
2022/01/18 07:55:18;;;;;;;9.20;5.00;;;-0.10;99.90;;;;;;5059196;28;20480;-54
2022/01/18 07:57:45;;;;;;;9.00;6.80;;;0.10;99.90;;;;;;5061145;28;20509;-54
2022/01/18 08:00:14;;;;;;;7.77;7.07;;;0.00;99.90;;;;;;5054335;28;20542;-54
2022/01/18 08:02:41;;;;;;;8.13;5.87;;;0.10;99.90;;;;;;5054586;28;20496;-57
2022/01/18 08:05:11;;;;;;;7.33;6.50;;;0.20;99.90;;;;;;5059249;28;20532;-54
2022/01/18 08:07:38;;;;;;;8.20;7.40;;;0.30;99.90;;;;;;5057027;28;20459;-54
2022/01/18 08:10:07;;;;;;;7.43;6.30;;;0.30;99.90;;;;;;5051761;28;20503;-53
2022/01/18 08:12:34;;;;;;;7.37;5.97;;;0.40;99.90;;;;;;5058753;28;20555;-56
2022/01/18 08:15:13;;;;;;;5.60;4.33;;;0.50;99.90;;;;;;5064815;28;20494;-54
2022/01/18 08:17:40;;;;;;;4.10;3.80;;;0.60;99.90;;;;;;5045829;28;20478;-54
2022/01/18 08:20:13;;;;;;;3.83;2.47;;;0.60;99.90;;;;;;5041925;28;20501;-55
2022/01/18 08:22:40;;;;;;;2.37;2.17;;;0.10;99.90;;;;;;5047435;28;20482;-54
2022/01/18 08:25:08;;;;;;;3.17;2.87;;;0.20;99.90;;;;;;5050134;28;20472;-54
2022/01/18 08:27:35;;;;;;;2.67;2.47;;;0.20;99.90;;;;;;5044517;28;20859;-54
2022/01/18 08:30:02;;;;;;;2.93;2.60;;;0.30;99.90;;;;;;5085634;23;20514;-83
2022/01/18 08:32:29;;;;;;;5.17;4.07;;;0.30;99.90;;;;;;5066690;28;20861;-82
2022/01/18 08:34:56;;;;;;;4.90;4.20;;;0.40;99.90;;;;;;5061945;28;20764;-82
2022/01/18 08:37:25;;;;;;;3.50;3.20;;;0.40;99.90;;;;;;5059050;28;20913;-82
2022/01/18 08:39:52;;;;;;;4.33;2.77;;;0.40;99.90;;;;;;5049165;28;20473;-82
2022/01/18 08:42:19;;;;;;;4.33;3.27;;;0.40;99.90;;;;;;5051143;28;20433;-82
2022/01/18 08:44:46;;;;;;;4.30;2.63;;;0.50;99.90;;;;;;5073622;23;20586;-53
2022/01/18 08:47:13;;;;;;;2.30;2.10;;;0.20;99.90;;;;;;5060597;28;20465;-52
2022/01/18 08:49:40;;;;;;;4.23;2.80;;;0.00;99.90;;;;;;5062184;28;20535;-50
2022/01/18 08:52:08;;;;;;;4.20;3.70;;;-0.10;99.90;;;;;;5049421;28;20548;-49
2022/01/18 08:54:36;;;;;;;3.30;2.90;;;-0.10;99.90;;;;;;5058106;28;20904;-51
2022/01/18 08:57:04;;;;;;;3.53;3.23;;;0.00;99.90;;;;;;5059973;28;20513;-48
2022/01/18 08:59:35;;;;;;;6.20;4.00;;;0.00;99.90;;;;;;5046451;28;20485;-48
2022/01/18 09:02:02;;;;;;;5.77;4.30;;;0.10;99.90;;;;;;5054035;28;20477;-49
2022/01/18 09:04:29;;;;;;;5.57;4.30;;;0.20;99.90;;;;;;5063873;28;20879;-48
2022/01/18 09:06:57;;;;;;;5.03;3.97;;;0.20;99.90;;;;;;5060122;28;20464;-49
2022/01/18 09:09:26;;;;;;;6.70;6.03;;;0.10;99.90;;;;;;5051723;28;20450;-50
2022/01/18 09:11:54;;;;;;;3.77;3.03;;;0.10;99.90;;;;;;5048385;28;20461;-47
2022/01/18 09:14:21;;;;;;;2.40;2.20;;;-0.20;99.90;;;;;;5057188;28;20440;-47
2022/01/18 09:16:48;;;;;;;3.10;2.70;;;-0.30;99.90;;;;;;5047513;28;20506;-49
2022/01/18 09:19:16;;;;;;;3.53;3.23;;;-0.40;99.90;;;;;;5053151;28;20481;-49
2022/01/18 09:21:46;;;;;;;7.70;6.87;;;-0.40;99.90;;;;;;5052239;28;20886;-47
2022/01/18 09:24:13;;;;;;;16.70;14.83;;;-0.20;99.90;;;;;;5054113;28;20441;-49
2022/01/18 09:26:40;;;;;;;7.93;7.13;;;-0.10;99.90;;;;;;5053278;28;20491;-49
2022/01/18 09:29:10;;;;;;;3.70;3.40;;;-0.30;99.90;;;;;;5058092;28;20474;-50
2022/01/18 09:31:37;;;;;;;2.77;2.57;;;-0.10;99.90;;;;;;5058206;28;20471;-50
2022/01/18 09:34:05;;;;;;;3.53;2.97;;;-0.10;99.90;;;;;;5045009;28;20563;-49
2022/01/18 09:36:32;;;;;;;5.47;4.97;;;0.00;99.90;;;;;;5052007;28;20917;-50
2022/01/18 09:38:59;;;;;;;8.63;5.57;;;0.10;99.90;;;;;;5057562;28;20553;-47
2022/01/18 09:41:30;;;;;;;11.47;8.40;;;0.20;99.90;;;;;;5046595;28;20499;-49
2022/01/18 09:43:58;;;;;;;9.20;8.30;;;0.20;99.90;;;;;;5048076;28;20462;-49
2022/01/18 09:46:27;;;;;;;21.67;19.63;;;0.20;99.90;;;;;;5059202;28;20969;-48
2022/01/18 09:48:54;;;;;;;10.77;9.70;;;0.00;99.90;;;;;;5051388;28;20476;-51
2022/01/18 09:51:21;;;;;;;6.93;6.30;;;0.10;99.90;;;;;;5050233;28;20474;-50
2022/01/18 09:53:48;;;;;;;5.97;5.47;;;0.20;99.90;;;;;;5060315;28;20483;-50
2022/01/18 09:56:16;;;;;;;3.23;2.93;;;0.30;99.90;;;;;;5052525;28;20483;-49
2022/01/18 09:58:44;;;;;;;2.87;2.17;;;0.20;99.90;;;;;;5046268;28;20453;-50
2022/01/18 10:01:11;;;;;;;5.60;2.60;;;0.00;99.90;;;;;;5049302;28;20517;-49
2022/01/18 10:03:42;;;;;;;2.10;1.90;;;0.00;99.90;;;;;;5050773;28;20469;-48
2022/01/18 10:06:11;;;;;;;2.00;1.90;;;0.10;99.90;;;;;;5047562;28;20497;-50
2022/01/18 10:08:39;;;;;;;2.33;1.67;;;0.10;99.90;;;;;;5052929;28;20890;-50
2022/01/18 10:11:10;;;;;;;3.83;3.43;;;0.20;99.90;;;;;;5051961;28;20491;-49
2022/01/18 10:13:38;;;;;;;2.13;1.90;;;0.40;99.90;;;;;;5053605;28;21120;-46
2022/01/18 10:16:08;;;;;;;2.63;2.27;;;0.40;99.90;;;;;;5049290;28;20446;-48
2022/01/18 10:18:45;;;;;;;3.67;2.60;;;0.50;99.90;;;;;;5046158;28;20516;-49
2022/01/18 10:21:15;;;;;;;4.57;4.13;;;0.50;99.90;;;;;;5056033;28;21001;-48
2022/01/18 10:23:49;;;;;;;4.10;3.70;;;0.60;99.90;;;;;;5054499;28;20443;-48
2022/01/18 10:26:21;;;;;;;3.60;3.30;;;0.60;99.90;;;;;;5051320;28;20720;-48
2022/01/18 10:28:58;;;;;;;4.43;3.80;;;0.70;99.90;;;;;;5061708;28;20479;-48
2022/01/18 10:31:28;;;;;;;2.73;2.50;;;0.80;99.90;;;;;;5056147;28;20462;-49
2022/01/18 10:34:14;;;;;;;2.23;2.03;;;0.90;99.90;;;;;;5048189;28;20556;-51
2022/01/18 10:37:03;;;;;;;2.20;2.00;;;0.90;99.90;;;;;;5049444;28;20483;-49
2022/01/18 10:39:32;;;;;;;1.57;1.47;;;1.00;99.90;;;;;;5056380;28;20953;-49
2022/01/18 10:42:02;;;;;;;5.80;3.70;;;1.10;99.90;;;;;;5057266;28;20872;-48
2022/01/18 10:44:34;;;;;;;2.37;2.17;;;1.20;99.90;;;;;;5044370;28;20447;-49
2022/01/18 10:47:01;;;;;;;1.90;1.80;;;1.30;99.90;;;;;;5052988;28;20967;-49
2022/01/18 10:49:36;;;;;;;2.03;1.73;;;1.40;99.90;;;;;;5059437;28;20472;-49
2022/01/18 10:52:06;;;;;;;1.23;1.13;;;1.50;99.90;;;;;;5052806;28;20452;-50
2022/01/18 10:54:39;;;;;;;1.80;1.30;;;1.50;99.90;;;;;;5048290;28;20969;-48
2022/01/18 10:57:08;;;;;;;1.57;1.40;;;1.50;99.90;;;;;;5058012;28;21013;-49
2022/01/18 10:59:37;;;;;;;1.37;1.23;;;1.60;99.90;;;;;;5056571;28;20468;-48
2022/01/18 11:02:20;;;;;;;1.10;0.97;;;1.70;99.90;;;;;;5049856;28;20522;-47
2022/01/18 11:04:51;;;;;;;1.50;1.40;;;1.70;99.90;;;;;;5050424;28;20475;-49
2022/01/18 11:07:20;;;;;;;32.30;29.73;;;1.70;99.90;;;;;;5055625;28;20572;-49
2022/01/18 11:09:48;;;;;;;4.53;4.13;;;1.90;99.90;;;;;;5052295;28;20472;-50
2022/01/18 11:12:15;;;;;;;2.67;2.30;;;2.00;99.90;;;;;;5044776;28;20530;-51
2022/01/18 11:14:47;;;;;;;2.67;2.47;;;2.10;99.90;;;;;;5056261;28;20503;-50
2022/01/18 11:17:22;;;;;;;2.80;2.60;;;2.20;99.90;;;;;;5053805;28;20519;-50
2022/01/18 11:19:54;;;;;;;2.87;2.03;;;2.30;99.90;;;;;;5040250;28;20945;-49
2022/01/18 11:22:25;;;;;;;2.60;2.40;;;2.40;99.90;;;;;;5046702;28;20466;-49
2022/01/18 11:24:56;;;;;;;3.10;2.80;;;2.40;99.90;;;;;;5044102;28;20486;-47
2022/01/18 11:27:23;;;;;;;4.07;3.70;;;2.50;99.90;;;;;;5054208;28;20468;-47
2022/01/18 11:29:50;;;;;;;5.23;4.20;;;2.50;99.90;;;;;;5046155;28;20472;-50
2022/01/18 11:32:18;;;;;;;4.50;4.10;;;2.60;99.90;;;;;;5053520;28;20502;-49
2022/01/18 11:34:56;;;;;;;4.50;4.10;;;2.60;99.90;;;;;;5041601;28;20440;-48
2022/01/18 11:37:38;;;;;;;4.47;4.07;;;2.70;99.90;;;;;;5038460;28;20565;-47
2022/01/18 11:40:09;;;;;;;4.30;3.47;;;2.70;99.90;;;;;;5037115;28;20532;-49
2022/01/18 11:42:46;;;;;;;3.10;2.80;;;2.80;99.90;;;;;;5043779;28;20481;-49
2022/01/18 11:45:46;;;;;;;4.57;3.80;;;2.90;99.90;;;;;;5045495;28;20866;-50
2022/01/18 11:48:16;;;;;;;4.17;3.40;;;3.00;99.90;;;;;;5039399;28;20462;-46
2022/01/18 11:50:47;;;;;;;3.13;2.90;;;3.00;99.90;;;;;;5046532;28;20468;-49
2022/01/18 11:53:38;;;;;;;3.37;3.17;;;3.10;99.90;;;;;;5054282;28;20462;-50
2022/01/18 11:56:07;;;;;;;4.73;2.70;;;3.10;99.90;;;;;;5050452;28;20450;-49
2022/01/18 11:58:34;;;;;;;4.43;3.43;;;3.10;99.90;;;;;;5051151;28;20483;-50
2022/01/18 12:01:03;;;;;;;5.17;4.13;;;3.10;99.90;;;;;;5048099;28;20504;-50
2022/01/18 12:03:32;;;;;;;4.70;4.30;;;3.20;99.90;;;;;;5053275;28;20962;-49
2022/01/18 12:06:03;;;;;;;3.93;3.63;;;3.20;99.90;;;;;;5059991;28;20527;-49
2022/01/18 12:08:33;;;;;;;4.40;4.00;;;3.30;99.90;;;;;;5036805;28;20457;-47
2022/01/18 12:11:01;;;;;;;3.80;3.50;;;3.30;99.90;;;;;;5049553;28;20488;-49
2022/01/18 12:13:40;;;;;;;4.80;3.00;;;3.40;99.90;;;;;;5054331;28;20485;-48
2022/01/18 12:16:17;;;;;;;3.50;3.00;;;3.40;99.90;;;;;;5055840;28;20823;-48
2022/01/18 12:18:53;;;;;;;5.20;3.40;;;3.40;99.90;;;;;;5048335;28;20912;-49
2022/01/18 12:21:24;;;;;;;2.60;2.40;;;3.40;99.90;;;;;;5053192;28;20565;-48
2022/01/18 12:23:52;;;;;;;4.63;2.77;;;3.40;99.90;;;;;;5061435;28;20922;-50
2022/01/18 12:26:33;;;;;;;3.40;2.43;;;3.40;99.90;;;;;;5054748;28;20887;-49
2022/01/18 12:35:00;;;;;;;3.50;3.20;;;3.50;99.90;;;;;;5045821;28;20515;-49
2022/01/18 12:37:48;;;;;;;5.43;3.87;;;3.50;99.90;;;;;;5058056;28;20486;-51
2022/01/18 12:40:35;;;;;;;5.30;4.80;;;3.50;99.90;;;;;;5052199;28;20466;-50
2022/01/18 12:46:00;;;;;;;16.50;9.47;;;3.50;99.90;;;;;;5046682;28;20480;-49
2022/01/18 12:48:28;;;;;;;3.90;3.50;;;3.50;99.90;;;;;;5064361;28;20493;-48
2022/01/18 12:50:58;;;;;;;4.10;2.90;;;3.50;99.90;;;;;;5052216;28;20498;-48
2022/01/18 12:53:29;;;;;;;2.23;2.03;;;3.50;99.90;;;;;;5048603;28;20481;-49
2022/01/18 12:55:57;;;;;;;2.63;2.40;;;3.60;99.90;;;;;;5047823;28;20489;-49
2022/01/18 12:58:28;;;;;;;3.53;2.33;;;3.60;99.90;;;;;;5058382;28;20567;-50
2022/01/18 13:00:56;;;;;;;2.43;2.00;;;3.60;99.90;;;;;;5049446;28;20539;-50
2022/01/18 13:03:26;;;;;;;2.20;2.00;;;3.60;99.90;;;;;;5055710;28;20484;-49
2022/01/18 13:05:55;;;;;;;5.90;2.37;;;3.60;99.90;;;;;;5068548;28;21302;-49
2022/01/18 13:08:29;;;;;;;2.90;2.70;;;3.60;99.90;;;;;;5054771;28;20479;-51
2022/01/18 13:10:56;;;;;;;2.30;2.10;;;3.70;99.90;;;;;;5048730;28;20532;-50
2022/01/18 13:13:30;;;;;;;2.77;2.57;;;3.70;99.90;;;;;;5051466;28;20485;-51
2022/01/18 13:27:37;;;;;;;4.83;3.00;;;3.60;99.90;;;;;;5056856;28;20451;-49
2022/01/18 13:30:16;;;;;;;3.20;2.90;;;3.60;99.90;;;;;;5062012;28;20440;-48
2022/01/18 13:32:44;;;;;;;4.10;3.50;;;3.60;99.90;;;;;;5057761;28;20433;-49
2022/01/18 13:35:11;;;;;;;3.73;2.80;;;3.60;99.90;;;;;;5052319;28;20931;-49
2022/01/18 13:37:39;;;;;;;6.77;3.60;;;3.70;99.90;;;;;;5062632;28;20506;-50
2022/01/18 13:40:12;;;;;;;3.23;2.40;;;3.70;99.90;;;;;;5046234;28;20465;-51
2022/01/18 13:42:40;;;;;;;2.20;2.10;;;3.70;99.90;;;;;;5049314;28;20813;-50
2022/01/18 13:45:11;;;;;;;2.53;2.33;;;3.70;99.90;;;;;;5057963;28;20481;-50
2022/01/18 13:47:40;;;;;;;4.57;2.57;;;3.80;99.90;;;;;;5060648;28;20442;-50
2022/01/18 13:50:08;;;;;;;4.50;3.37;;;3.80;99.90;;;;;;5043716;28;20492;-49
2022/01/18 13:52:35;;;;;;;9.70;5.43;;;3.90;99.90;;;;;;5043669;28;20469;-51
2022/01/18 13:55:02;;;;;;;12.20;7.20;;;3.80;99.90;;;;;;5049176;28;20497;-49
2022/01/18 13:57:30;;;;;;;10.53;5.90;;;3.80;99.90;;;;;;5044726;28;20446;-49
2022/01/18 13:59:57;;;;;;;6.03;5.43;;;3.80;99.90;;;;;;5043056;28;20475;-50
2022/01/18 14:02:25;;;;;;;3.67;2.73;;;3.80;99.90;;;;;;5052518;28;20495;-50
2022/01/18 14:05:08;;;;;;;3.33;1.90;;;3.70;99.90;;;;;;5044339;28;20433;-50
2022/01/18 14:07:35;;;;;;;3.10;2.20;;;3.70;99.90;;;;;;5047190;28;20440;-48